createdAt,value
2018-01-20T00:00:16.118Z,87.70
2018-01-20T00:02:43.743Z,87.90
2018-01-20T00:05:11.367Z,87.90
2018-01-20T00:07:38.993Z,87.60
2018-01-20T00:10:18.384Z,87.20
2018-01-20T00:12:46.010Z,87.10
2018-01-20T00:15:13.598Z,87.00
2018-01-20T00:17:41.212Z,86.70
2018-01-20T00:20:08.870Z,86.50
2018-01-20T00:22:36.440Z,86.80
2018-01-20T00:25:04.026Z,86.40
2018-01-20T00:27:37.303Z,86.40
2018-01-20T00:30:04.923Z,86.60
2018-01-20T00:32:32.478Z,86.00
2018-01-20T00:35:00.131Z,86.00
2018-01-20T00:37:27.712Z,85.90
2018-01-20T00:39:55.335Z,85.90
2018-01-20T00:42:22.923Z,85.60
2018-01-20T00:44:50.535Z,85.60
2018-01-20T00:47:18.094Z,85.60
2018-01-20T00:49:45.696Z,85.80
2018-01-20T00:52:13.279Z,85.60
2018-01-20T00:54:40.834Z,85.70
2018-01-20T00:57:08.412Z,85.60
2018-01-20T00:59:35.986Z,85.70
2018-01-20T01:02:03.583Z,85.70
2018-01-20T01:04:31.202Z,85.40
2018-01-20T01:06:58.799Z,85.60
2018-01-20T01:09:26.390Z,85.20
2018-01-20T01:11:54.421Z,85.50
2018-01-20T01:14:21.985Z,85.50
2018-01-20T01:16:50.260Z,85.80
2018-01-20T01:19:17.848Z,85.80
2018-01-20T01:21:45.867Z,86.80
2018-01-20T01:24:13.450Z,86.80
2018-01-20T01:26:41.081Z,87.40
2018-01-20T01:29:08.712Z,88.20
2018-01-20T01:31:36.317Z,88.50
2018-01-20T01:34:03.858Z,88.80
2018-01-20T01:36:31.444Z,89.30
2018-01-20T01:38:59.090Z,89.50
2018-01-20T01:41:26.717Z,89.80
2018-01-20T01:43:54.282Z,89.90
2018-01-20T01:46:21.881Z,90.10
2018-01-20T01:48:49.445Z,90.10
2018-01-20T01:51:17.088Z,90.30
2018-01-20T01:53:44.646Z,90.40
2018-01-20T01:56:12.240Z,90.70
2018-01-20T01:58:39.818Z,90.90
2018-01-20T02:01:07.362Z,91.10
2018-01-20T02:03:34.995Z,91.30
2018-01-20T02:06:02.542Z,91.40
2018-01-20T02:08:30.190Z,91.50
2018-01-20T02:10:57.749Z,91.50
2018-01-20T02:13:25.358Z,91.60
2018-01-20T02:15:53.366Z,91.70
2018-01-20T02:18:20.979Z,91.70
2018-01-20T02:20:48.563Z,91.80
2018-01-20T02:23:26.804Z,91.80
2018-01-20T02:25:54.439Z,91.70
2018-01-20T02:28:22.051Z,91.60
2018-01-20T02:30:49.645Z,91.60
2018-01-20T02:33:17.225Z,91.50
2018-01-20T02:35:44.784Z,91.50
2018-01-20T02:38:12.407Z,91.50
2018-01-20T02:40:39.979Z,91.40
2018-01-20T02:43:07.591Z,91.40
2018-01-20T02:45:35.181Z,91.40
2018-01-20T02:48:02.793Z,91.40
2018-01-20T02:50:30.436Z,91.50
2018-01-20T02:52:58.020Z,91.50
2018-01-20T02:55:25.587Z,91.60
2018-01-20T02:57:53.204Z,91.60
2018-01-20T03:00:20.787Z,91.70
2018-01-20T03:05:22.202Z,91.70
2018-01-20T03:07:50.183Z,91.60
2018-01-20T03:10:17.743Z,91.60
2018-01-20T03:12:45.331Z,91.50
2018-01-20T03:15:12.950Z,91.30
2018-01-20T03:17:40.944Z,91.60
2018-01-20T03:20:08.517Z,91.50
2018-01-20T03:22:36.092Z,91.60
2018-01-20T03:25:03.700Z,91.80
2018-01-20T03:27:31.279Z,91.80
2018-01-20T03:29:58.840Z,91.90
2018-01-20T03:32:26.451Z,91.90
2018-01-20T03:34:54.044Z,91.80
2018-01-20T03:37:21.593Z,92.00
2018-01-20T03:39:49.166Z,92.00
2018-01-20T03:42:16.722Z,91.90
2018-01-20T03:44:44.336Z,92.00
2018-01-20T03:47:11.885Z,92.10
2018-01-20T03:49:39.504Z,92.00
2018-01-20T03:52:07.077Z,92.00
2018-01-20T03:54:34.643Z,91.90
2018-01-20T03:57:02.217Z,92.00
2018-01-20T03:59:29.805Z,92.00
2018-01-20T04:01:57.386Z,92.00
2018-01-20T04:04:24.975Z,92.00
2018-01-20T04:06:52.527Z,92.10
2018-01-20T04:09:20.126Z,92.10
2018-01-20T04:11:47.694Z,92.10
2018-01-20T04:14:15.286Z,92.00
2018-01-20T04:16:42.918Z,92.00
2018-01-20T04:19:10.503Z,92.10
2018-01-20T04:21:38.086Z,92.10
2018-01-20T04:24:05.681Z,92.10
2018-01-20T04:26:33.276Z,92.20
2018-01-20T04:29:00.925Z,92.30
2018-01-20T04:31:28.932Z,92.60
2018-01-20T04:33:56.528Z,92.60
2018-01-20T04:36:24.083Z,92.40
2018-01-20T04:38:51.633Z,92.10
2018-01-20T04:41:19.218Z,92.00
2018-01-20T04:43:47.187Z,91.40
2018-01-20T04:46:15.182Z,91.30
2018-01-20T04:48:42.845Z,91.30
2018-01-20T04:51:10.422Z,91.10
2018-01-20T04:53:38.048Z,91.10
2018-01-20T04:56:05.652Z,91.00
2018-01-20T04:58:33.275Z,90.90
2018-01-20T05:01:00.847Z,90.90
2018-01-20T05:03:28.454Z,91.00
2018-01-20T05:05:56.075Z,91.00
2018-01-20T05:08:23.673Z,90.90
2018-01-20T05:10:51.260Z,90.90
2018-01-20T05:13:18.896Z,91.00
2018-01-20T05:15:46.483Z,90.80
2018-01-20T05:18:14.076Z,90.80
2018-01-20T05:20:41.666Z,90.90
2018-01-20T05:23:09.214Z,90.90
2018-01-20T05:25:36.865Z,90.90
2018-01-20T05:28:04.426Z,90.90
2018-01-20T05:30:32.035Z,90.80
2018-01-20T05:33:16.176Z,90.90
2018-01-20T05:35:43.837Z,90.80
2018-01-20T05:38:11.371Z,90.70
2018-01-20T05:40:38.976Z,90.60
2018-01-20T05:43:06.572Z,90.60
2018-01-20T05:45:34.208Z,90.60
2018-01-20T05:48:01.850Z,90.50
2018-01-20T05:50:29.471Z,90.20
2018-01-20T05:52:57.014Z,90.20
2018-01-20T05:55:24.664Z,90.20
2018-01-20T05:57:52.255Z,90.30
2018-01-20T06:00:19.840Z,90.30
2018-01-20T06:02:47.423Z,90.50
2018-01-20T06:05:15.005Z,90.70
2018-01-20T06:07:42.619Z,90.80
2018-01-20T06:10:10.170Z,90.70
2018-01-20T06:12:37.787Z,90.90
2018-01-20T06:15:05.420Z,91.10
2018-01-20T06:17:33.000Z,91.10
2018-01-20T06:20:00.640Z,91.10
2018-01-20T06:22:28.274Z,91.20
2018-01-20T06:24:55.833Z,91.20
2018-01-20T06:27:23.449Z,91.20
2018-01-20T06:29:51.102Z,91.20
2018-01-20T06:32:18.729Z,91.30
2018-01-20T06:34:46.271Z,91.30
2018-01-20T06:37:13.830Z,91.30
2018-01-20T06:39:41.384Z,91.20
2018-01-20T06:42:08.965Z,91.30
2018-01-20T06:44:36.550Z,91.30
2018-01-20T06:47:04.190Z,91.20
2018-01-20T06:49:31.753Z,91.00
2018-01-20T06:51:59.360Z,91.00
2018-01-20T06:54:26.935Z,91.00
2018-01-20T06:56:54.560Z,90.90
2018-01-20T06:59:22.149Z,90.90
2018-01-20T07:01:49.781Z,91.00
2018-01-20T07:04:25.939Z,91.00
2018-01-20T07:06:53.583Z,91.00
2018-01-20T07:09:21.244Z,90.90
2018-01-20T07:11:49.264Z,90.90
2018-01-20T07:14:16.870Z,90.90
2018-01-20T07:16:44.431Z,90.90
2018-01-20T07:19:12.039Z,90.90
2018-01-20T07:21:39.606Z,90.80
2018-01-20T07:24:07.204Z,90.80
2018-01-20T07:26:34.758Z,90.80
2018-01-20T07:29:02.365Z,90.90
2018-01-20T07:31:29.938Z,90.90
2018-01-20T07:33:57.549Z,90.90
2018-01-20T07:36:25.172Z,90.90
2018-01-20T07:38:52.766Z,90.80
2018-01-20T07:41:20.370Z,90.80
2018-01-20T07:43:47.970Z,90.80
2018-01-20T07:46:15.540Z,90.80
2018-01-20T07:48:43.134Z,90.90
2018-01-20T07:51:10.715Z,90.70
2018-01-20T07:53:38.342Z,90.60
2018-01-20T07:56:05.926Z,90.50
2018-01-20T07:58:33.559Z,90.50
2018-01-20T08:01:01.209Z,90.50
2018-01-20T08:03:29.277Z,90.50
2018-01-20T08:05:56.969Z,90.50
2018-01-20T08:08:24.553Z,90.40
2018-01-20T08:10:52.154Z,90.50
2018-01-20T08:13:19.769Z,90.40
2018-01-20T08:15:47.342Z,90.40
2018-01-20T08:18:14.936Z,90.40
2018-01-20T08:20:42.528Z,90.30
2018-01-20T08:23:10.119Z,90.20
2018-01-20T08:25:37.742Z,90.30
2018-01-20T08:28:05.341Z,90.30
2018-01-20T08:30:33.124Z,90.20
2018-01-20T08:33:01.205Z,90.10
2018-01-20T08:35:28.800Z,90.10
2018-01-20T08:37:56.361Z,90.00
2018-01-20T08:40:23.959Z,89.80
2018-01-20T08:42:51.548Z,89.70
2018-01-20T08:45:20.317Z,89.60
2018-01-20T08:47:52.991Z,89.40
2018-01-20T08:50:21.689Z,89.40
2018-01-20T08:52:49.693Z,89.60
2018-01-20T08:55:17.305Z,89.60
2018-01-20T08:57:44.927Z,89.40
2018-01-20T09:00:12.923Z,89.30
2018-01-20T09:02:40.530Z,89.20
2018-01-20T09:05:08.142Z,88.50
2018-01-20T09:07:35.759Z,87.90
2018-01-20T09:12:37.388Z,87.60
2018-01-20T09:15:05.379Z,87.90
2018-01-20T09:17:36.555Z,87.90
2018-01-20T09:20:04.152Z,88.00
2018-01-20T09:22:31.880Z,87.60
2018-01-20T09:24:59.487Z,87.30
2018-01-20T09:27:27.058Z,87.80
2018-01-20T09:29:54.685Z,88.00
2018-01-20T09:32:22.324Z,88.40
2018-01-20T09:34:50.048Z,88.50
2018-01-20T09:37:17.612Z,88.70
2018-01-20T09:42:19.862Z,88.80
2018-01-20T09:44:47.593Z,88.90
2018-01-20T09:47:15.173Z,88.80
2018-01-20T09:49:42.758Z,88.80
2018-01-20T09:52:10.352Z,88.90
2018-01-20T09:54:37.995Z,89.10
2018-01-20T09:57:05.599Z,88.80
2018-01-20T09:59:33.176Z,88.90
2018-01-20T10:02:01.150Z,88.70
2018-01-20T10:04:28.707Z,88.70
2018-01-20T10:06:56.690Z,88.50
2018-01-20T10:09:24.260Z,88.50
2018-01-20T10:11:51.828Z,88.40
2018-01-20T10:14:26.124Z,88.90
2018-01-20T10:16:53.759Z,88.60
2018-01-20T10:19:21.314Z,88.90
2018-01-20T10:21:48.895Z,88.50
2018-01-20T10:24:16.444Z,88.40
2018-01-20T10:26:44.036Z,88.40
2018-01-20T10:29:11.595Z,87.80
2018-01-20T10:31:39.192Z,87.30
2018-01-20T10:34:06.759Z,86.40
2018-01-20T10:36:34.376Z,86.90
2018-01-20T10:39:01.971Z,86.00
2018-01-20T10:41:29.638Z,86.70
2018-01-20T10:43:57.201Z,86.70
2018-01-20T10:46:25.232Z,86.30
2018-01-20T10:48:52.816Z,86.30
2018-01-20T10:51:20.421Z,85.40
2018-01-20T10:53:47.980Z,85.50
2018-01-20T10:56:15.562Z,85.80
2018-01-20T10:58:43.208Z,86.00
2018-01-20T11:01:10.836Z,86.30
2018-01-20T11:03:38.463Z,85.80
2018-01-20T11:06:07.050Z,85.50
2018-01-20T11:08:34.699Z,85.30
2018-01-20T11:11:02.276Z,84.80
2018-01-20T11:13:29.915Z,85.80
2018-01-20T11:15:57.588Z,85.10
2018-01-20T11:18:25.257Z,85.70
2018-01-20T11:20:53.268Z,85.80
2018-01-20T11:23:20.891Z,85.80
2018-01-20T11:25:48.474Z,86.00
2018-01-20T11:28:16.084Z,85.10
2018-01-20T11:30:43.715Z,84.80
2018-01-20T11:33:11.415Z,85.00
2018-01-20T11:35:39.009Z,85.50
2018-01-20T11:38:06.873Z,85.80
2018-01-20T11:40:34.567Z,85.10
2018-01-20T11:43:02.379Z,84.90
2018-01-20T11:45:30.183Z,85.00
2018-01-20T11:48:00.036Z,84.90
2018-01-20T11:50:27.643Z,84.60
2018-01-20T11:52:55.477Z,84.40
2018-01-20T11:55:23.268Z,84.80
2018-01-20T11:57:50.894Z,84.90
2018-01-20T12:00:18.462Z,84.40
2018-01-20T12:02:46.561Z,85.20
2018-01-20T12:05:14.271Z,84.90
2018-01-20T12:07:41.851Z,85.10
2018-01-20T12:10:09.549Z,85.40
2018-01-20T12:12:37.208Z,85.80
2018-01-20T12:15:04.940Z,85.70
2018-01-20T12:17:32.563Z,85.70
2018-01-20T12:20:00.144Z,85.30
2018-01-20T12:22:27.739Z,85.20
2018-01-20T12:24:55.319Z,85.10
2018-01-20T12:27:22.950Z,86.00
2018-01-20T12:29:50.534Z,85.10
2018-01-20T12:32:18.102Z,85.40
2018-01-20T12:34:45.695Z,85.50
2018-01-20T12:37:13.259Z,85.80
2018-01-20T12:39:46.913Z,86.30
2018-01-20T12:42:14.474Z,86.20
2018-01-20T12:44:42.087Z,86.40
2018-01-20T12:47:09.747Z,86.60
2018-01-20T12:49:37.443Z,85.90
2018-01-20T12:52:05.028Z,85.90
2018-01-20T12:54:33.794Z,85.70
2018-01-20T12:57:04.978Z,86.20
2018-01-20T12:59:32.570Z,86.40
2018-01-20T13:02:00.214Z,86.30
2018-01-20T13:04:28.023Z,86.20
2018-01-20T13:06:55.562Z,86.30
2018-01-20T13:09:23.223Z,86.20
2018-01-20T13:11:50.780Z,86.40
2018-01-20T13:14:18.376Z,86.50
2018-01-20T13:16:48.025Z,85.90
2018-01-20T13:19:16.022Z,86.00
2018-01-20T13:21:43.644Z,86.00
2018-01-20T13:24:11.239Z,86.20
2018-01-20T13:26:38.844Z,86.30
2018-01-20T13:29:06.447Z,86.50
2018-01-20T13:31:34.023Z,86.40
2018-01-20T13:34:01.623Z,86.50
2018-01-20T13:36:29.200Z,86.50
2018-01-20T13:38:56.820Z,86.30
2018-01-20T13:41:24.364Z,86.60
2018-01-20T13:43:51.939Z,86.30
2018-01-20T13:46:19.551Z,86.00
2018-01-20T13:48:47.152Z,85.70
2018-01-20T13:51:14.985Z,85.60
2018-01-20T13:53:42.820Z,85.50
2018-01-20T13:56:10.357Z,85.70
2018-01-20T13:58:37.978Z,85.70
2018-01-20T14:01:05.627Z,86.00
2018-01-20T14:03:33.240Z,86.00
2018-01-20T14:06:08.571Z,86.40
2018-01-20T14:08:36.211Z,86.00
2018-01-20T14:11:03.866Z,86.20
2018-01-20T14:13:31.456Z,86.50
2018-01-20T14:15:59.075Z,86.30
2018-01-20T14:18:26.789Z,86.30
2018-01-20T14:20:54.800Z,86.60
2018-01-20T14:23:22.379Z,86.80
2018-01-20T14:25:49.964Z,87.00
2018-01-20T14:28:28.132Z,87.10
2018-01-20T14:30:55.919Z,87.60
2018-01-20T14:33:25.539Z,87.70
2018-01-20T14:36:03.126Z,87.40
2018-01-20T14:38:31.824Z,87.70
2018-01-20T14:40:59.496Z,87.80
2018-01-20T14:43:28.226Z,87.80
2018-01-20T14:45:55.847Z,87.70
2018-01-20T14:48:23.456Z,87.70
2018-01-20T14:50:51.307Z,87.80
2018-01-20T14:53:18.999Z,87.90
2018-01-20T14:55:46.696Z,87.90
2018-01-20T14:58:14.334Z,87.90
2018-01-20T15:00:41.988Z,87.90
2018-01-20T15:03:09.572Z,88.20
2018-01-20T15:05:37.582Z,88.40
2018-01-20T15:08:05.519Z,88.30
2018-01-20T15:10:33.164Z,88.50
2018-01-20T15:13:00.766Z,88.50
2018-01-20T15:15:28.421Z,88.50
2018-01-20T15:17:55.991Z,88.30
2018-01-20T15:20:23.667Z,88.20
2018-01-20T15:22:51.295Z,88.40
2018-01-20T15:25:18.891Z,88.80
2018-01-20T15:27:46.481Z,89.10
2018-01-20T15:30:14.100Z,89.20
2018-01-20T15:32:41.706Z,89.40
2018-01-20T15:35:09.303Z,89.70
2018-01-20T15:37:36.929Z,89.60
2018-01-20T15:40:04.535Z,89.50
2018-01-20T15:42:32.099Z,89.40
2018-01-20T15:44:59.759Z,89.50
2018-01-20T15:47:27.398Z,89.40
2018-01-20T15:49:54.951Z,89.70
2018-01-20T15:52:22.539Z,89.80
2018-01-20T15:54:50.159Z,89.70
2018-01-20T15:57:22.433Z,89.90
2018-01-20T15:59:50.001Z,89.90
2018-01-20T16:02:17.633Z,90.00
2018-01-20T16:04:46.214Z,90.10
2018-01-20T16:07:13.943Z,90.10
2018-01-20T16:09:41.561Z,90.10
2018-01-20T16:12:09.275Z,90.20
2018-01-20T16:14:37.658Z,90.10
2018-01-20T16:17:05.238Z,90.20
2018-01-20T16:19:32.819Z,90.20
2018-01-20T16:22:00.463Z,90.10
2018-01-20T16:24:28.021Z,90.10
2018-01-20T16:26:55.897Z,90.10
2018-01-20T16:29:23.540Z,90.10
2018-01-20T16:31:53.234Z,90.10
2018-01-20T16:34:21.124Z,90.20
2018-01-20T16:36:49.206Z,90.30
2018-01-20T16:39:17.290Z,90.30
2018-01-20T16:41:45.598Z,90.10
2018-01-20T16:44:13.236Z,90.20
2018-01-20T16:46:40.871Z,90.30
2018-01-20T16:49:08.476Z,90.20
2018-01-20T16:51:36.040Z,90.50
2018-01-20T16:54:04.725Z,90.20
2018-01-20T16:56:32.390Z,90.10
2018-01-20T16:59:00.177Z,90.10
2018-01-20T17:01:27.877Z,90.10
2018-01-20T17:03:55.548Z,90.10
2018-01-20T17:06:23.139Z,90.00
2018-01-20T17:08:51.188Z,90.00
2018-01-20T17:11:18.757Z,90.00
2018-01-20T17:13:46.363Z,89.80
2018-01-20T17:16:13.923Z,89.80
2018-01-20T17:18:41.567Z,89.80
2018-01-20T17:21:09.140Z,89.70
2018-01-20T17:23:37.197Z,89.80
2018-01-20T17:26:04.788Z,89.80
2018-01-20T17:28:32.384Z,89.90
2018-01-20T17:30:59.926Z,90.00
2018-01-20T17:33:27.533Z,90.10
2018-01-20T17:35:55.170Z,90.10
2018-01-20T17:38:22.809Z,90.10
2018-01-20T17:40:50.377Z,90.40
2018-01-20T17:43:18.015Z,90.60
2018-01-20T17:45:45.643Z,90.10
2018-01-20T17:48:13.240Z,90.30
2018-01-20T17:50:40.841Z,90.30
2018-01-20T17:53:08.420Z,90.60
2018-01-20T17:55:35.999Z,90.60
2018-01-20T17:58:03.657Z,90.90
2018-01-20T18:00:31.258Z,90.70
2018-01-20T18:02:58.947Z,90.70
2018-01-20T18:05:26.548Z,90.70
2018-01-20T18:07:54.136Z,90.90
2018-01-20T18:10:21.894Z,91.10
2018-01-20T18:12:49.519Z,91.50
2018-01-20T18:15:17.120Z,91.20
2018-01-20T18:17:44.712Z,91.00
2018-01-20T18:20:12.335Z,91.00
2018-01-20T18:22:39.929Z,91.00
2018-01-20T18:25:07.564Z,91.20
2018-01-20T18:27:35.569Z,91.20
2018-01-20T18:30:03.207Z,91.20
2018-01-20T18:32:30.875Z,91.20
2018-01-20T18:34:58.522Z,91.30
2018-01-20T18:37:26.108Z,91.20
2018-01-20T18:39:53.719Z,91.10
2018-01-20T18:42:21.365Z,91.10
2018-01-20T18:44:48.982Z,91.00
2018-01-20T18:47:16.628Z,91.00
2018-01-20T18:49:47.687Z,91.00
2018-01-20T18:52:15.671Z,91.10
2018-01-20T18:54:43.285Z,91.10
2018-01-20T18:57:10.836Z,91.00
2018-01-20T18:59:38.439Z,91.00
2018-01-20T19:02:06.051Z,91.10
2018-01-20T19:04:33.668Z,91.10
2018-01-20T19:07:01.236Z,91.20
2018-01-20T19:09:28.819Z,91.20
2018-01-20T19:11:56.438Z,91.20
2018-01-20T19:14:24.005Z,91.20
2018-01-20T19:16:51.599Z,91.20
2018-01-20T19:19:19.230Z,91.20
2018-01-20T19:21:46.864Z,91.20
2018-01-20T19:24:14.479Z,91.20
2018-01-20T19:26:42.140Z,91.40
2018-01-20T19:29:09.799Z,91.40
2018-01-20T19:31:37.384Z,91.20
2018-01-20T19:34:05.032Z,91.20
2018-01-20T19:36:32.675Z,91.30
2018-01-20T19:39:00.247Z,91.40
2018-01-20T19:41:27.864Z,91.40
2018-01-20T19:43:56.341Z,91.50
2018-01-20T19:46:23.976Z,91.50
2018-01-20T19:48:51.611Z,91.50
2018-01-20T19:51:19.223Z,91.50
2018-01-20T19:53:46.788Z,91.50
2018-01-20T19:56:14.401Z,91.60
2018-01-20T19:58:42.407Z,91.70
2018-01-20T20:01:10.045Z,91.70
2018-01-20T20:03:37.605Z,91.70
2018-01-20T20:06:05.258Z,91.70
2018-01-20T20:08:32.899Z,91.80
2018-01-20T20:11:00.597Z,91.80
2018-01-20T20:13:28.245Z,91.80
2018-01-20T20:15:55.856Z,91.80
2018-01-20T20:18:23.512Z,91.90
2018-01-20T20:20:51.195Z,91.90
2018-01-20T20:23:18.871Z,91.90
2018-01-20T20:25:46.523Z,92.00
2018-01-20T20:28:14.158Z,92.00
2018-01-20T20:30:41.815Z,92.00
2018-01-20T20:33:09.424Z,92.10
2018-01-20T20:35:37.054Z,92.10
2018-01-20T20:38:04.660Z,92.10
2018-01-20T20:40:32.295Z,92.10
2018-01-20T20:43:00.327Z,92.20
2018-01-20T20:45:27.954Z,92.20
2018-01-20T20:47:55.559Z,92.20
2018-01-20T20:50:23.222Z,92.20
2018-01-20T20:52:50.879Z,92.20
2018-01-20T20:55:18.486Z,92.20
2018-01-20T20:57:46.135Z,92.20
2018-01-20T21:00:13.746Z,92.20
2018-01-20T21:02:41.410Z,92.20
2018-01-20T21:05:09.058Z,92.20
2018-01-20T21:07:36.716Z,92.30
2018-01-20T21:10:04.342Z,92.30
2018-01-20T21:12:31.965Z,92.30
2018-01-20T21:14:59.630Z,92.30
2018-01-20T21:17:27.235Z,92.30
2018-01-20T21:19:54.856Z,92.30
2018-01-20T21:22:22.548Z,92.20
2018-01-20T21:24:50.135Z,92.30
2018-01-20T21:27:17.719Z,92.30
2018-01-20T21:29:45.361Z,92.50
2018-01-20T21:32:13.017Z,93.00
2018-01-20T21:34:40.657Z,93.10
2018-01-20T21:37:08.252Z,92.90
2018-01-20T21:39:35.905Z,92.80
2018-01-20T21:42:03.527Z,92.60
2018-01-20T21:44:31.143Z,92.40
2018-01-20T21:46:58.772Z,92.20
2018-01-20T21:49:26.364Z,92.10
2018-01-20T21:51:53.985Z,92.40
2018-01-20T21:54:21.619Z,92.30
2018-01-20T21:56:49.209Z,92.20
2018-01-20T21:59:16.831Z,92.20
2018-01-20T22:01:44.440Z,92.20
2018-01-20T22:04:12.088Z,92.10
2018-01-20T22:06:39.717Z,92.10
2018-01-20T22:09:07.588Z,92.10
2018-01-20T22:11:38.959Z,92.10
2018-01-20T22:14:06.865Z,92.10
2018-01-20T22:16:34.716Z,92.30
2018-01-20T22:19:02.385Z,92.40
2018-01-20T22:21:30.027Z,92.30
2018-01-20T22:23:57.648Z,92.20
2018-01-20T22:26:25.251Z,91.90
2018-01-20T22:28:52.875Z,91.70
2018-01-20T22:31:20.480Z,91.60
2018-01-20T22:33:48.165Z,91.60
2018-01-20T22:36:16.205Z,91.70
2018-01-20T22:38:43.846Z,91.70
2018-01-20T22:41:11.514Z,91.80
2018-01-20T22:43:39.449Z,91.70
2018-01-20T22:46:07.177Z,91.70
2018-01-20T22:48:34.802Z,91.80
2018-01-20T22:51:02.472Z,91.70
2018-01-20T22:53:30.123Z,91.70
2018-01-20T22:55:57.736Z,91.70
2018-01-20T22:58:25.371Z,91.80
2018-01-20T23:00:52.964Z,91.60
2018-01-20T23:03:20.512Z,91.70
2018-01-20T23:05:48.098Z,91.50
2018-01-20T23:08:15.727Z,91.50
2018-01-20T23:10:43.353Z,91.60
2018-01-20T23:13:10.963Z,91.70
2018-01-20T23:15:38.586Z,91.80
2018-01-20T23:18:06.604Z,91.30
2018-01-20T23:20:34.250Z,91.30
2018-01-20T23:23:01.834Z,91.30
2018-01-20T23:25:29.481Z,91.40
2018-01-20T23:27:57.062Z,91.30
2018-01-20T23:30:24.696Z,91.50
2018-01-20T23:32:52.281Z,91.60
2018-01-20T23:35:19.965Z,91.70
2018-01-20T23:37:47.589Z,91.80
2018-01-20T23:40:15.227Z,91.70
2018-01-20T23:42:42.787Z,91.50
2018-01-20T23:45:10.425Z,91.50
2018-01-20T23:47:37.988Z,91.50
2018-01-20T23:50:05.599Z,91.60
2018-01-20T23:52:33.163Z,91.50
2018-01-20T23:55:00.800Z,91.60
2018-01-20T23:57:28.351Z,91.70
2018-01-20T23:59:55.974Z,91.70
